KQRH

Camp Lemonier

Camp Lemonier, Djibouti
METAR KQRH 100556Z AUTO VRB04KT 9999 FEW022 27/21 A3006 RMK AO2 SLP166 WND DATA ESTMD T02720205 10277 20233
Observed Flight Rules
Dec-10 @ 05:56 UTC (32 minutes ago) Visual Flight Rules
Wind Visibility Clouds
Variable at 4 knots 10,000+ meters
  • Few at 2,200' AGL
Temperatures Readings
Current 27°C / 81°F
Dewpoint 21°C / 70°F
Humidity 70%
Altimeter 30.06" Hg
Pressure 1016.6 hPa
METAR KQRH 100556Z AUTO VRB04KT 9999 FEW022 27/21 A3006 RMK AO2 SLP166 WND DATA ESTMD T02720205 10277 20233
Observed Flight Rules
Dec-10 @ 05:56 UTC
(32 minutes ago)
VFR
Wind Visibility
Variable at 4 knots 10,000+ meters
Clouds
  • Few at 2,200' AGL
Temperature Dewpoint
27°C / 81°F 21°C / 70°F
Humidity Altimeter Pressure
70% 30.06" Hg 1016.6 hPa